Time;durP1;ratioP1;P1;durP2;ratioP2;P2;SDS_P1;SDS_P2;PMS_P1;PMS_P2;Temp;Humidity;BMP_temperature;BMP_pressure;BME280_temperature;BME280_humidity;BME280_pressure;Samples;Min_cycle;Max_cycle;Signal;HPM_P1;HPM_P2
2021/07/07 00:00:19;;;;;;;;;;;;;;;19.47;59.31;97088.61;1840192;77;20393;-73
2021/07/07 00:02:47;;;;;;;;;;;;;;;19.49;58.33;97085.74;1841080;77;20112;-71
2021/07/07 00:05:15;;;;;;;;;;;;;;;19.50;59.14;97086.07;1848215;77;20119;-73
2021/07/07 00:07:42;;;;;;;;;;;;;;;19.53;60.22;97082.20;1843297;77;20158;-73
2021/07/07 00:10:11;;;;;;;;;;;;;;;19.55;59.95;97076.99;1847437;77;20089;-73
2021/07/07 00:12:38;;;;;;;;;;;;;;;19.57;59.64;97080.33;1846090;77;20104;-75
2021/07/07 00:15:07;;;;;;;;;;;;;;;19.59;59.51;97081.47;1846866;77;20088;-74
2021/07/07 00:17:33;;;;;;;;;;;;;;;19.61;59.91;97080.30;1846948;77;20099;-74
2021/07/07 00:19:59;;;;;;;;;;;;;;;19.63;60.06;97078.77;1848246;77;20123;-73
2021/07/07 00:22:25;;;;;;;;;;;;;;;19.66;60.47;97080.58;1847137;77;20092;-74
2021/07/07 00:24:51;;;;;;;;;;;;;;;19.66;60.00;97079.23;1846558;77;20096;-75
2021/07/07 00:27:17;;;;;;;;;;;;;;;19.68;60.02;97074.22;1847527;77;20128;-74
2021/07/07 00:29:44;;;;;;;;;;;;;;;19.70;59.79;97079.70;1845851;77;20436;-77
2021/07/07 00:32:11;;;;;;;;;;;;;;;19.72;60.01;97082.22;1843572;77;20183;-72
2021/07/07 00:34:37;;;;;;;;;;;;;;;19.74;59.87;97080.16;1842768;77;20145;-73
2021/07/07 00:37:03;;;;;;;;;;;;;;;19.75;60.00;97075.99;1844808;77;20148;-73
2021/07/07 00:39:29;;;;;;;;;;;;;;;19.77;59.50;97075.80;1839821;77;20133;-73
2021/07/07 00:41:58;;;;;;;;;;;;;;;19.75;60.46;97069.80;1826001;77;20099;-75
2021/07/07 00:44:24;;;;;;;;;;;;;;;19.74;59.74;97072.98;1846413;77;20092;-74
2021/07/07 00:46:50;;;;;;;;;;;;;;;19.73;60.12;97069.14;1832157;77;20151;-71
2021/07/07 00:49:16;;;;;;;;;;;;;;;19.70;60.02;97069.01;1828699;77;20123;-72
2021/07/07 00:51:43;;;;;;;;;;;;;;;19.68;59.95;97070.20;1844970;77;20351;-77
2021/07/07 00:54:09;;;;;;;;;;;;;;;19.62;59.60;97070.42;1855411;77;20408;-76
2021/07/07 00:56:36;;;;;;;;;;;;;;;19.57;61.15;97070.97;1847123;77;20177;-74
2021/07/07 00:59:04;;;;;;;;;;;;;;;19.52;60.29;97072.03;1851214;77;20080;-73
2021/07/07 01:01:30;;;;;;;;;;;;;;;19.46;59.96;97071.39;1850972;77;20178;-73
2021/07/07 01:03:56;;;;;;;;;;;;;;;19.41;59.65;97071.94;1847731;77;20099;-72
2021/07/07 01:06:22;;;;;;;;;;;;;;;19.37;59.92;97071.13;1847094;77;20084;-72
2021/07/07 01:08:48;;;;;;;;;;;;;;;19.33;60.03;97071.52;1835177;77;20390;-73
2021/07/07 01:11:14;;;;;;;;;;;;;;;19.29;59.31;97072.05;1753747;77;20108;-74
2021/07/07 01:13:41;;;;;;;;;;;;;;;19.22;60.60;97079.95;1834698;77;20107;-72
2021/07/07 01:16:08;;;;;;;;;;;;;;;19.17;60.50;97080.48;1830154;77;20120;-74
2021/07/07 01:18:35;;;;;;;;;;;;;;;19.14;60.18;97080.83;1851446;77;20130;-76
2021/07/07 01:21:02;;;;;;;;;;;;;;;19.09;60.81;97080.55;1850418;77;20114;-73
2021/07/07 01:23:29;;;;;;;;;;;;;;;19.04;60.88;97085.09;1809300;77;20116;-73
2021/07/07 01:25:55;;;;;;;;;;;;;;;19.01;61.24;97082.76;1835058;77;20104;-73
2021/07/07 01:28:22;;;;;;;;;;;;;;;18.98;60.19;97079.09;1841613;77;20168;-72
2021/07/07 01:30:49;;;;;;;;;;;;;;;18.94;60.15;97084.48;1845730;77;20105;-79
2021/07/07 01:33:15;;;;;;;;;;;;;;;18.89;60.93;97078.78;1842310;77;20104;-73
2021/07/07 01:35:42;;;;;;;;;;;;;;;18.86;60.09;97094.66;1839487;77;20420;-73
2021/07/07 01:38:09;;;;;;;;;;;;;;;18.83;62.32;97090.19;1844148;77;20154;-73
2021/07/07 01:40:35;;;;;;;;;;;;;;;18.78;60.99;97092.05;1834743;77;20397;-73
2021/07/07 01:43:01;;;;;;;;;;;;;;;18.76;59.65;97091.38;1843824;77;20428;-72
2021/07/07 01:45:30;;;;;;;;;;;;;;;18.73;61.20;97092.57;1845576;77;20100;-73
2021/07/07 01:47:56;;;;;;;;;;;;;;;18.71;59.87;97092.42;1844649;77;20088;-73
2021/07/07 01:50:24;;;;;;;;;;;;;;;18.70;59.95;97098.25;1844136;77;20144;-72
2021/07/07 01:52:52;;;;;;;;;;;;;;;18.66;59.71;97096.95;1847707;77;20212;-73
2021/07/07 01:55:18;;;;;;;;;;;;;;;18.62;60.45;97094.29;1843963;77;20100;-73
2021/07/07 01:57:49;;;;;;;;;;;;;;;18.61;60.53;97091.29;1822936;77;20100;-73
2021/07/07 02:00:18;;;;;;;;;;;;;;;18.60;61.13;97086.98;1824832;77;20091;-72
2021/07/07 02:02:46;;;;;;;;;;;;;;;18.61;60.28;97085.13;1841279;77;20104;-72
2021/07/07 02:05:13;;;;;;;;;;;;;;;18.61;60.28;97088.63;1846705;77;20080;-72
2021/07/07 02:07:39;;;;;;;;;;;;;;;18.62;61.88;97087.62;1830828;77;20123;-73
2021/07/07 02:10:08;;;;;;;;;;;;;;;18.63;61.65;97085.28;1846368;77;20088;-74
2021/07/07 02:12:34;;;;;;;;;;;;;;;18.65;61.29;97087.80;1845608;78;20092;-73
2021/07/07 02:15:03;;;;;;;;;;;;;;;18.66;61.34;97087.61;1834166;77;20087;-73
2021/07/07 02:17:29;;;;;;;;;;;;;;;18.70;61.88;97084.09;1843005;77;20183;-77
2021/07/07 02:19:57;;;;;;;;;;;;;;;18.72;61.59;97088.75;1827193;77;20096;-73
2021/07/07 02:22:23;;;;;;;;;;;;;;;18.75;62.19;97091.05;1845270;77;20148;-73
2021/07/07 02:24:49;;;;;;;;;;;;;;;18.76;60.85;97095.39;1845172;77;20103;-73
2021/07/07 02:27:15;;;;;;;;;;;;;;;18.79;61.41;97094.23;1848525;77;20187;-72
2021/07/07 02:29:41;;;;;;;;;;;;;;;18.82;61.41;97097.86;1846288;77;20124;-83
2021/07/07 02:32:08;;;;;;;;;;;;;;;18.85;61.54;97098.86;1846433;77;20127;-73
2021/07/07 02:34:34;;;;;;;;;;;;;;;18.85;61.33;97089.52;1846554;77;20384;-74
2021/07/07 02:37:00;;;;;;;;;;;;;;;18.87;60.65;97096.84;1839956;77;20417;-72
2021/07/07 02:39:27;;;;;;;;;;;;;;;18.88;61.19;97095.84;1830660;77;20396;-73
2021/07/07 02:41:53;;;;;;;;;;;;;;;18.88;61.30;97092.66;1841102;77;20151;-73
2021/07/07 02:44:21;;;;;;;;;;;;;;;18.88;61.70;97091.32;1830915;77;20099;-72
2021/07/07 02:46:47;;;;;;;;;;;;;;;18.87;61.40;97084.83;1843037;77;20144;-72
2021/07/07 02:49:13;;;;;;;;;;;;;;;18.86;60.96;97087.17;1836712;77;20163;-72
2021/07/07 02:51:39;;;;;;;;;;;;;;;18.86;61.17;97087.17;1841475;77;20156;-75
2021/07/07 02:54:05;;;;;;;;;;;;;;;18.84;61.20;97088.66;1847046;77;20169;-73
2021/07/07 02:56:31;;;;;;;;;;;;;;;18.82;60.87;97084.02;1853241;77;20147;-73
2021/07/07 02:58:57;;;;;;;;;;;;;;;18.79;60.37;97090.22;1841780;77;20120;-73
2021/07/07 03:01:26;;;;;;;;;;;;;;;18.73;61.02;97085.89;1838669;77;20425;-76
2021/07/07 03:03:52;;;;;;;;;;;;;;;18.71;60.76;97098.58;1847402;77;20096;-73
2021/07/07 03:06:19;;;;;;;;;;;;;;;18.69;60.29;97093.95;1846528;77;20369;-73
2021/07/07 03:08:45;;;;;;;;;;;;;;;18.68;59.99;97094.09;1846463;77;20381;-74
2021/07/07 03:11:11;;;;;;;;;;;;;;;18.68;61.88;97095.44;1848051;77;20122;-73
2021/07/07 03:13:37;;;;;;;;;;;;;;;18.67;60.83;97098.62;1850038;77;20206;-73
2021/07/07 03:16:03;;;;;;;;;;;;;;;18.67;61.23;97093.28;1835332;77;20096;-72
2021/07/07 03:18:31;;;;;;;;;;;;;;;18.67;60.36;97098.62;1842264;77;20140;-73
2021/07/07 03:20:57;;;;;;;;;;;;;;;18.68;61.27;97096.77;1844240;77;20428;-74
2021/07/07 03:23:26;;;;;;;;;;;;;;;18.69;60.51;97093.95;1847240;77;20080;-73
2021/07/07 03:25:53;;;;;;;;;;;;;;;18.71;60.50;97093.77;1828562;77;20088;-71
2021/07/07 03:28:20;;;;;;;;;;;;;;;18.73;60.80;97093.91;1847119;77;20100;-72
2021/07/07 03:30:49;;;;;;;;;;;;;;;18.76;60.69;97087.89;1844679;77;20377;-71
2021/07/07 03:33:16;;;;;;;;;;;;;;;18.79;61.32;97088.38;1847495;77;20162;-71
2021/07/07 03:35:42;;;;;;;;;;;;;;;18.80;61.05;97087.37;1848233;77;20130;-71
2021/07/07 03:38:08;;;;;;;;;;;;;;;18.82;60.53;97084.02;1849788;77;20200;-71
2021/07/07 03:40:37;;;;;;;;;;;;;;;18.88;60.42;97082.49;1846903;77;20110;-74
2021/07/07 03:43:03;;;;;;;;;;;;;;;18.93;60.45;97082.81;1831571;77;20091;-73
2021/07/07 03:45:31;;;;;;;;;;;;;;;18.98;60.84;97095.64;1847625;77;20092;-73
2021/07/07 03:47:57;;;;;;;;;;;;;;;19.03;60.44;97092.77;1838648;77;20087;-73
2021/07/07 03:50:24;;;;;;;;;;;;;;;19.10;60.41;97098.72;1843363;77;20432;-74
2021/07/07 03:52:52;;;;;;;;;;;;;;;19.16;60.15;97099.38;1833287;77;20124;-72
2021/07/07 03:55:21;;;;;;;;;;;;;;;19.21;59.70;97103.66;1843340;77;20182;-73
2021/07/07 03:57:47;;;;;;;;;;;;;;;19.30;60.73;97108.45;1845357;77;20210;-73
2021/07/07 04:00:22;;;;;;;;;;;;;;;19.53;60.18;97112.94;1845571;77;20100;-74
2021/07/07 04:02:47;;;;;;;;;;;;;;;19.88;60.57;97112.83;1842707;77;20132;-73
2021/07/07 04:05:14;;;;;;;;;;;;;;;20.29;59.61;97112.39;1845438;77;20115;-73
2021/07/07 04:07:40;;;;;;;;;;;;;;;20.66;58.99;97113.80;1845561;77;20147;-73
2021/07/07 04:10:09;;;;;;;;;;;;;;;21.09;58.55;97114.43;1841714;77;20116;-73
2021/07/07 04:12:37;;;;;;;;;;;;;;;21.55;57.79;97112.39;1843429;77;20093;-75
2021/07/07 04:15:05;;;;;;;;;;;;;;;21.99;56.80;97112.66;1842994;77;20148;-73
2021/07/07 04:17:32;;;;;;;;;;;;;;;22.44;56.04;97117.73;1845907;77;20406;-75
2021/07/07 04:19:58;;;;;;;;;;;;;;;22.91;55.35;97112.55;1839306;77;20140;-74
2021/07/07 04:22:26;;;;;;;;;;;;;;;23.37;55.45;97117.23;1840350;77;20147;-74
2021/07/07 04:24:52;;;;;;;;;;;;;;;23.85;50.50;97119.44;1850518;77;20091;-73
2021/07/07 04:27:18;;;;;;;;;;;;;;;24.32;51.18;97118.89;1841412;77;20137;-72
2021/07/07 04:29:44;;;;;;;;;;;;;;;24.79;53.67;97124.16;1850007;77;20389;-75
2021/07/07 04:32:10;;;;;;;;;;;;;;;25.24;52.02;97126.55;1839897;77;20393;-73
2021/07/07 04:34:36;;;;;;;;;;;;;;;25.65;49.38;97121.20;1844111;77;20096;-73
2021/07/07 04:37:03;;;;;;;;;;;;;;;26.10;46.75;97120.23;1846503;77;20111;-74
2021/07/07 04:39:29;;;;;;;;;;;;;;;26.44;47.29;97120.72;1845510;77;20425;-74
2021/07/07 04:41:55;;;;;;;;;;;;;;;26.82;45.38;97121.55;1832384;77;20393;-75
2021/07/07 04:44:22;;;;;;;;;;;;;;;27.24;43.54;97114.88;1846729;77;20096;-74
2021/07/07 04:46:48;;;;;;;;;;;;;;;27.61;44.82;97116.63;1845276;77;20143;-73
2021/07/07 04:49:14;;;;;;;;;;;;;;;27.98;43.53;97120.51;1834377;77;20104;-75
2021/07/07 04:51:40;;;;;;;;;;;;;;;28.33;43.56;97118.89;1823729;77;20190;-76
2021/07/07 04:54:06;;;;;;;;;;;;;;;28.68;41.43;97120.20;1825549;77;20104;-74
2021/07/07 04:56:32;;;;;;;;;;;;;;;28.98;42.87;97128.70;1831211;77;20115;-72
2021/07/07 04:58:58;;;;;;;;;;;;;;;29.33;39.39;97132.89;1831004;77;20401;-73
2021/07/07 05:01:24;;;;;;;;;;;;;;;29.68;39.20;97128.63;1824445;77;20400;-76
2021/07/07 05:03:52;;;;;;;;;;;;;;;30.04;38.00;97134.67;1842510;77;20365;-74
2021/07/07 05:06:18;;;;;;;;;;;;;;;30.41;41.93;97140.63;1845284;77;20104;-75
2021/07/07 05:08:47;;;;;;;;;;;;;;;30.69;43.34;97142.39;1844288;77;20156;-76
2021/07/07 05:11:15;;;;;;;;;;;;;;;30.99;38.99;97142.49;1844720;77;20175;-76
2021/07/07 05:13:41;;;;;;;;;;;;;;;31.33;35.79;97147.79;1845640;77;20081;-74
2021/07/07 05:16:07;;;;;;;;;;;;;;;31.63;36.78;97154.62;1844673;77;20430;-80
2021/07/07 05:18:34;;;;;;;;;;;;;;;31.88;35.02;97154.59;1845863;77;20085;-75
2021/07/07 05:21:00;;;;;;;;;;;;;;;32.02;33.78;97161.78;1844524;77;20111;-75
2021/07/07 05:23:28;;;;;;;;;;;;;;;32.17;31.81;97158.36;1834683;77;20182;-75
2021/07/07 05:25:56;;;;;;;;;;;;;;;32.39;31.88;97154.17;1846689;77;20092;-76
2021/07/07 05:28:22;;;;;;;;;;;;;;;32.62;31.78;97162.48;1833040;77;20120;-75
2021/07/07 05:30:48;;;;;;;;;;;;;;;33.00;32.62;97165.16;1843007;77;20092;-76
2021/07/07 05:33:14;;;;;;;;;;;;;;;33.23;31.02;97169.86;1844585;77;20088;-76
2021/07/07 05:35:41;;;;;;;;;;;;;;;33.43;32.08;97165.05;1842911;77;20095;-79
2021/07/07 05:38:07;;;;;;;;;;;;;;;33.51;35.75;97168.62;1840744;77;20095;-72
2021/07/07 05:40:35;;;;;;;;;;;;;;;33.54;30.24;97168.08;1838919;77;20397;-73
2021/07/07 05:43:01;;;;;;;;;;;;;;;33.86;30.32;97173.87;1846848;77;20147;-74
2021/07/07 05:45:27;;;;;;;;;;;;;;;34.17;31.29;97177.98;1840249;77;20091;-73
2021/07/07 05:47:55;;;;;;;;;;;;;;;34.37;36.27;97176.31;1825573;77;20096;-74
2021/07/07 05:50:22;;;;;;;;;;;;;;;34.47;32.37;97174.97;1833186;77;20101;-74
2021/07/07 05:52:48;;;;;;;;;;;;;;;34.59;32.26;97177.40;1835366;77;20100;-74
2021/07/07 05:55:15;;;;;;;;;;;;;;;34.63;28.95;97172.19;1846098;77;20096;-77
2021/07/07 05:57:41;;;;;;;;;;;;;;;34.54;29.02;97171.39;1838729;77;20104;-74
2021/07/07 06:00:11;;;;;;;;;;;;;;;34.39;29.27;97173.60;1842629;77;20179;-75
2021/07/07 06:02:38;;;;;;;;;;;;;;;34.70;28.81;97174.08;1836220;77;20392;-77
2021/07/07 06:05:06;;;;;;;;;;;;;;;35.09;28.74;97172.58;1838146;77;20396;-75
2021/07/07 06:07:32;;;;;;;;;;;;;;;35.39;28.14;97178.47;1843982;77;20405;-77
2021/07/07 06:09:59;;;;;;;;;;;;;;;35.54;30.01;97176.76;1844463;77;20080;-80
2021/07/07 06:12:25;;;;;;;;;;;;;;;35.75;27.82;97171.42;1844352;77;20093;-77
2021/07/07 06:14:51;;;;;;;;;;;;;;;35.93;28.02;97175.97;1843843;77;20093;-76
2021/07/07 06:17:17;;;;;;;;;;;;;;;36.11;27.80;97174.44;1839436;77;20100;-74
2021/07/07 06:19:43;;;;;;;;;;;;;;;36.26;27.00;97175.69;1823283;77;20124;-74
2021/07/07 06:22:13;;;;;;;;;;;;;;;36.46;26.76;97179.38;1827932;77;20087;-74
2021/07/07 06:24:39;;;;;;;;;;;;;;;36.67;26.24;97178.59;1804439;77;20104;-73
2021/07/07 06:27:06;;;;;;;;;;;;;;;36.87;25.89;97179.47;1830247;77;20116;-73
2021/07/07 06:29:33;;;;;;;;;;;;;;;36.84;26.72;97180.88;1835541;77;20160;-74
2021/07/07 06:32:00;;;;;;;;;;;;;;;36.90;26.70;97178.89;1839083;77;20157;-75
2021/07/07 06:34:26;;;;;;;;;;;;;;;36.78;26.12;97175.73;1813001;78;20230;-75
2021/07/07 06:36:52;;;;;;;;;;;;;;;36.38;29.90;97172.55;1837189;77;20123;-74
2021/07/07 06:39:18;;;;;;;;;;;;;;;35.36;28.85;97172.75;1844179;77;20103;-76
2021/07/07 06:41:44;;;;;;;;;;;;;;;35.35;28.17;97171.91;1842491;77;20428;-83
2021/07/07 06:44:10;;;;;;;;;;;;;;;35.54;28.03;97172.66;1843449;76;20401;-73
2021/07/07 06:46:37;;;;;;;;;;;;;;;35.80;27.79;97174.11;1830877;77;20373;-73
2021/07/07 06:49:06;;;;;;;;;;;;;;;36.17;29.53;97168.35;1845438;77;20397;-75
2021/07/07 06:51:32;;;;;;;;;;;;;;;36.10;27.00;97176.94;1847133;77;20140;-74
2021/07/07 06:53:58;;;;;;;;;;;;;;;36.37;27.17;97170.91;1834966;77;20100;-76
2021/07/07 06:56:24;;;;;;;;;;;;;;;36.55;26.66;97167.19;1844071;77;20116;-75
2021/07/07 06:58:55;;;;;;;;;;;;;;;36.30;27.00;97164.11;1842251;77;20171;-85
2021/07/07 07:01:21;;;;;;;;;;;;;;;35.63;29.95;97167.67;1835739;78;20123;-76
2021/07/07 07:03:47;;;;;;;;;;;;;;;34.51;28.51;97177.41;1841380;77;20222;-74
2021/07/07 07:06:13;;;;;;;;;;;;;;;33.67;29.71;97170.83;1846016;77;20170;-73
2021/07/07 07:08:39;;;;;;;;;;;;;;;33.75;30.27;97168.92;1847203;77;20433;-74
2021/07/07 07:11:05;;;;;;;;;;;;;;;33.57;30.02;97170.25;1841842;77;20374;-74
2021/07/07 07:13:32;;;;;;;;;;;;;;;33.33;31.23;97168.56;1842492;77;20393;-74
2021/07/07 07:15:59;;;;;;;;;;;;;;;33.40;30.92;97172.41;1840543;77;20396;-79
2021/07/07 07:18:26;;;;;;;;;;;;;;;33.54;30.50;97166.72;1834543;77;20407;-75
2021/07/07 07:20:52;;;;;;;;;;;;;;;33.17;30.82;97169.86;1832913;77;20420;-75
2021/07/07 07:23:19;;;;;;;;;;;;;;;33.41;31.44;97167.23;1822829;77;20373;-74
2021/07/07 07:25:45;;;;;;;;;;;;;;;33.74;30.81;97170.55;1845377;77;20373;-74
2021/07/07 07:28:11;;;;;;;;;;;;;;;33.70;30.29;97177.66;1851047;77;20404;-73
2021/07/07 07:30:37;;;;;;;;;;;;;;;33.91;30.42;97171.16;1851123;77;20354;-74
2021/07/07 07:33:03;;;;;;;;;;;;;;;34.04;30.52;97164.31;1849558;77;20147;-74
2021/07/07 07:35:29;;;;;;;;;;;;;;;34.28;29.89;97172.50;1847711;77;20134;-74
2021/07/07 07:38:11;;;;;;;;;;;;;;;34.64;30.64;97174.63;1843543;77;20233;-75
2021/07/07 07:40:36;;;;;;;;;;;;;;;34.50;28.30;97166.75;1842634;77;20420;-74
2021/07/07 07:43:04;;;;;;;;;;;;;;;34.61;29.23;97168.90;1844518;77;20137;-75
2021/07/07 07:45:30;;;;;;;;;;;;;;;34.93;30.45;97171.84;1844097;77;20111;-75
2021/07/07 07:47:57;;;;;;;;;;;;;;;34.28;29.28;97173.31;1844512;77;20428;-73
2021/07/07 07:50:23;;;;;;;;;;;;;;;33.93;30.43;97178.52;1843817;77;20381;-74
2021/07/07 07:52:50;;;;;;;;;;;;;;;33.67;30.19;97174.09;1844307;77;20100;-76
2021/07/07 07:55:18;;;;;;;;;;;;;;;33.71;31.03;97179.30;1845161;77;20424;-72
2021/07/07 07:57:45;;;;;;;;;;;;;;;33.72;31.16;97180.39;1845530;77;20096;-75
2021/07/07 08:00:14;;;;;;;;;;;;;;;33.97;31.94;97179.34;1845895;77;20169;-74
2021/07/07 08:02:41;;;;;;;;;;;;;;;34.14;31.23;97173.05;1840525;77;20424;-73
2021/07/07 08:05:08;;;;;;;;;;;;;;;33.97;30.92;97179.34;1821831;77;20115;-73
2021/07/07 08:07:34;;;;;;;;;;;;;;;33.84;31.23;97173.28;1782352;79;20087;-74
2021/07/07 08:10:01;;;;;;;;;;;;;;;33.70;31.34;97165.36;1787821;79;20114;-73
2021/07/07 08:12:27;;;;;;;;;;;;;;;33.89;30.65;97183.44;1780079;80;20094;-75
2021/07/07 08:14:53;;;;;;;;;;;;;;;33.78;30.93;97182.02;1799716;79;20091;-75
2021/07/07 08:17:20;;;;;;;;;;;;;;;33.59;31.44;97186.39;1764193;81;20113;-73
2021/07/07 08:19:48;;;;;;;;;;;;;;;33.39;32.30;97187.15;1762805;81;20183;-72
2021/07/07 08:22:16;;;;;;;;;;;;;;;33.35;31.76;97186.88;1772288;80;20165;-73
2021/07/07 08:24:43;;;;;;;;;;;;;;;33.29;32.44;97189.29;1761218;80;20131;-74
2021/07/07 08:27:10;;;;;;;;;;;;;;;32.68;32.70;97179.18;1830402;77;20120;-74
2021/07/07 08:29:36;;;;;;;;;;;;;;;32.28;33.61;97186.56;1825826;77;20143;-76
2021/07/07 08:32:04;;;;;;;;;;;;;;;32.38;33.56;97188.81;1834617;78;20105;-75
2021/07/07 08:34:31;;;;;;;;;;;;;;;32.43;33.57;97181.20;1828883;77;20129;-77
2021/07/07 08:36:57;;;;;;;;;;;;;;;32.53;33.52;97189.45;1839266;77;20152;-76
2021/07/07 08:39:24;;;;;;;;;;;;;;;32.47;33.20;97197.86;1839508;77;20127;-74
2021/07/07 08:41:50;;;;;;;;;;;;;;;31.89;33.85;97195.75;1839186;77;20448;-75
2021/07/07 08:44:16;;;;;;;;;;;;;;;31.74;34.48;97195.09;1833066;77;20108;-79
2021/07/07 08:46:42;;;;;;;;;;;;;;;31.79;34.43;97193.77;1826588;77;20100;-77
2021/07/07 08:49:09;;;;;;;;;;;;;;;32.01;34.50;97190.95;1846393;77;20127;-76
2021/07/07 08:51:40;;;;;;;;;;;;;;;32.22;34.37;97188.40;1841631;77;20095;-77
2021/07/07 08:54:03;;;;;;;;;;;;;;;32.48;33.58;97189.97;1835537;77;20156;-74
2021/07/07 08:56:29;;;;;;;;;;;;;;;32.72;32.73;97182.20;1845037;77;20131;-75
2021/07/07 08:58:55;;;;;;;;;;;;;;;32.66;32.58;97185.44;1833167;77;20105;-74
2021/07/07 09:01:21;;;;;;;;;;;;;;;32.57;32.92;97187.02;1846322;77;20096;-75
2021/07/07 09:03:47;;;;;;;;;;;;;;;32.43;32.82;97191.30;1844123;77;20080;-75
2021/07/07 09:06:14;;;;;;;;;;;;;;;32.44;32.09;97192.40;1849598;77;20127;-74
2021/07/07 09:08:45;;;;;;;;;;;;;;;32.39;32.08;97187.73;1844818;77;20093;-75
2021/07/07 09:11:27;;;;;;;;;;;;;;;32.01;31.35;97189.59;1847103;77;20158;-74
2021/07/07 09:14:14;;;;;;;;;;;;;;;31.91;32.33;97199.04;1846025;77;20401;-74
2021/07/07 09:16:55;;;;;;;;;;;;;;;31.89;32.44;97191.66;1817060;78;20092;-74
2021/07/07 09:19:19;;;;;;;;;;;;;;;32.08;32.79;97192.11;1838248;77;20103;-74
2021/07/07 09:21:54;;;;;;;;;;;;;;;32.18;32.88;97188.63;1839599;77;20249;-73
2021/07/07 09:24:24;;;;;;;;;;;;;;;32.02;31.29;97193.97;1832124;77;20402;-74
2021/07/07 09:27:06;;;;;;;;;;;;;;;31.78;31.37;97192.92;1841983;77;20104;-72
2021/07/07 09:29:40;;;;;;;;;;;;;;;31.49;31.23;97188.81;1834093;77;20188;-74
2021/07/07 09:32:13;;;;;;;;;;;;;;;31.14;31.86;97186.23;1843610;77;20096;-75
2021/07/07 09:34:40;;;;;;;;;;;;;;;30.98;33.32;97197.98;1849854;77;20183;-75
2021/07/07 09:37:10;;;;;;;;;;;;;;;30.73;33.13;97199.83;1842902;77;20223;-75
2021/07/07 09:39:36;;;;;;;;;;;;;;;30.48;33.60;97193.77;1831169;77;20092;-76
2021/07/07 09:42:03;;;;;;;;;;;;;;;30.52;34.13;97190.86;1841591;77;20104;-73
2021/07/07 09:44:34;;;;;;;;;;;;;;;30.48;34.49;97193.77;1844713;77;20088;-75
2021/07/07 09:47:04;;;;;;;;;;;;;;;30.49;35.39;97192.67;1848048;77;20119;-73
2021/07/07 09:49:32;;;;;;;;;;;;;;;30.58;34.95;97190.94;1849549;77;20411;-76
2021/07/07 09:52:00;;;;;;;;;;;;;;;30.66;35.04;97193.23;1843648;77;20701;-71
2021/07/07 09:54:26;;;;;;;;;;;;;;;30.61;35.26;97198.58;1831238;77;20377;-76
2021/07/07 09:56:53;;;;;;;;;;;;;;;30.43;35.44;97188.24;1846267;77;20420;-74
2021/07/07 09:59:19;;;;;;;;;;;;;;;30.32;36.74;97194.07;1833220;77;20097;-75
2021/07/07 10:01:46;;;;;;;;;;;;;;;30.33;36.53;97195.72;1843181;77;20225;-73
2021/07/07 10:04:14;;;;;;;;;;;;;;;30.32;36.11;97197.31;1838909;77;20104;-73
2021/07/07 10:06:41;;;;;;;;;;;;;;;30.30;35.96;97192.68;1831809;77;20116;-73
2021/07/07 10:09:08;;;;;;;;;;;;;;;30.22;36.40;97192.00;1837568;77;20991;-72
2021/07/07 10:11:35;;;;;;;;;;;;;;;30.31;36.67;97188.34;1844048;77;20089;-73
2021/07/07 10:14:02;;;;;;;;;;;;;;;30.44;36.41;97187.17;1833577;77;20096;-75
2021/07/07 10:16:29;;;;;;;;;;;;;;;30.38;37.16;97196.34;1838281;77;20119;-74
2021/07/07 10:18:56;;;;;;;;;;;;;;;30.45;36.63;97204.30;1841755;77;20115;-74
2021/07/07 10:21:24;;;;;;;;;;;;;;;30.38;36.66;97194.42;1824737;77;20084;-75
2021/07/07 10:23:51;;;;;;;;;;;;;;;30.43;37.14;97200.48;1841034;77;20111;-75
2021/07/07 10:26:18;;;;;;;;;;;;;;;30.42;37.77;97210.25;1838872;77;20100;-73
2021/07/07 10:28:45;;;;;;;;;;;;;;;30.34;37.97;97211.48;1844564;77;20084;-75
2021/07/07 10:31:11;;;;;;;;;;;;;;;30.34;38.29;97205.53;1850445;77;20100;-75
2021/07/07 10:33:38;;;;;;;;;;;;;;;30.31;38.32;97205.17;1851698;77;20108;-75
2021/07/07 10:36:25;;;;;;;;;;;;;;;30.39;37.85;97208.86;1840578;77;20088;-75
2021/07/07 10:39:01;;;;;;;;;;;;;;;30.40;37.31;97206.40;1836614;77;20108;-72
2021/07/07 10:41:46;;;;;;;;;;;;;;;30.36;39.50;97206.63;1846937;77;20096;-73
2021/07/07 10:44:27;;;;;;;;;;;;;;;30.34;39.71;97210.97;1854193;77;20412;-75
2021/07/07 10:47:13;;;;;;;;;;;;;;;30.37;39.03;97215.08;1850753;77;20227;-74
2021/07/07 10:49:42;;;;;;;;;;;;;;;30.31;39.17;97211.45;1847568;77;20456;-72
2021/07/07 10:52:11;;;;;;;;;;;;;;;30.32;39.50;97205.47;1837292;77;20104;-80
2021/07/07 10:54:45;;;;;;;;;;;;;;;30.37;38.34;97208.28;1828605;77;20088;-81
2021/07/07 10:57:15;;;;;;;;;;;;;;;30.25;38.54;97203.45;1836443;77;20170;-75
2021/07/07 10:59:48;;;;;;;;;;;;;;;30.29;38.63;97199.99;1834278;77;20145;-74
2021/07/07 11:02:23;;;;;;;;;;;;;;;30.37;39.15;97205.56;1837717;78;20441;-76
2021/07/07 11:04:54;;;;;;;;;;;;;;;30.40;38.99;97202.33;1835816;78;20097;-73
2021/07/07 11:07:41;;;;;;;;;;;;;;;30.31;39.70;97214.69;1835244;78;20112;-74
2021/07/07 11:10:17;;;;;;;;;;;;;;;30.31;39.54;97209.25;1828143;77;20409;-73
2021/07/07 11:12:47;;;;;;;;;;;;;;;30.38;39.47;97215.37;1842216;77;20093;-72
2021/07/07 11:15:19;;;;;;;;;;;;;;;30.43;39.34;97202.39;1834624;77;20156;-73
2021/07/07 11:17:47;;;;;;;;;;;;;;;30.47;39.64;97211.16;1824014;77;20099;-74
2021/07/07 11:20:29;;;;;;;;;;;;;;;30.53;39.30;97205.30;1823781;77;20092;-73
2021/07/07 11:23:07;;;;;;;;;;;;;;;30.53;39.65;97208.82;1837129;77;20120;-74
2021/07/07 11:25:37;;;;;;;;;;;;;;;30.63;39.57;97201.88;1832009;77;20104;-74
2021/07/07 11:28:05;;;;;;;;;;;;;;;30.70;39.51;97202.52;1817521;78;20149;-74
2021/07/07 11:30:32;;;;;;;;;;;;;;;30.73;39.36;97202.03;1802503;79;20100;-73
2021/07/07 11:33:05;;;;;;;;;;;;;;;30.91;39.03;97217.77;1829052;78;20373;-75
2021/07/07 11:35:34;;;;;;;;;;;;;;;30.72;38.91;97197.66;1830219;77;20097;-75
2021/07/07 11:38:03;;;;;;;;;;;;;;;30.74;39.11;97200.11;1834880;77;20226;-74
2021/07/07 11:40:31;;;;;;;;;;;;;;;30.58;38.83;97207.26;1830705;77;20116;-74
2021/07/07 11:43:06;;;;;;;;;;;;;;;30.60;38.81;97202.38;1839192;77;20092;-72
2021/07/07 11:45:42;;;;;;;;;;;;;;;30.72;38.60;97206.37;1835574;76;20144;-74
2021/07/07 11:48:23;;;;;;;;;;;;;;;30.76;38.76;97198.81;1823201;77;20170;-74
2021/07/07 11:50:53;;;;;;;;;;;;;;;30.84;38.66;97205.18;1814502;77;20144;-72
2021/07/07 11:53:20;;;;;;;;;;;;;;;30.84;38.70;97197.53;1833251;77;20503;-74
2021/07/07 11:55:52;;;;;;;;;;;;;;;30.86;38.33;97197.30;1842691;77;20140;-74
2021/07/07 11:58:27;;;;;;;;;;;;;;;30.97;38.25;97193.09;1818313;77;20127;-74
2021/07/07 12:00:55;;;;;;;;;;;;;;;31.05;38.29;97190.45;1814449;79;20437;-74
2021/07/07 12:03:24;;;;;;;;;;;;;;;31.15;37.66;97190.61;1833303;77;20392;-73
2021/07/07 12:05:56;;;;;;;;;;;;;;;31.19;37.77;97186.84;1834807;77;20401;-74
2021/07/07 12:08:26;;;;;;;;;;;;;;;31.30;37.89;97189.16;1807516;77;20092;-73
2021/07/07 12:11:10;;;;;;;;;;;;;;;31.33;37.05;97194.07;1823538;77;20210;-83
2021/07/07 12:13:39;;;;;;;;;;;;;;;31.28;37.00;97198.92;1812423;77;20384;-86
2021/07/07 12:16:26;;;;;;;;;;;;;;;31.22;37.53;97186.89;1843722;77;20135;-81
2021/07/07 12:19:02;;;;;;;;;;;;;;;31.23;37.69;97198.88;1802437;77;20458;-82
2021/07/07 12:21:30;;;;;;;;;;;;;;;31.34;37.48;97201.16;1795851;79;20090;-81
2021/07/07 12:23:58;;;;;;;;;;;;;;;31.34;37.44;97197.08;1806182;79;20106;-79
2021/07/07 12:26:33;;;;;;;;;;;;;;;31.38;36.92;97198.23;1797562;79;20091;-82
2021/07/07 12:29:00;;;;;;;;;;;;;;;31.42;37.07;97199.34;1800381;79;20106;-74
2021/07/07 12:31:37;;;;;;;;;;;;;;;31.52;37.22;97197.81;1804711;79;20094;-71
2021/07/07 12:34:06;;;;;;;;;;;;;;;31.69;36.60;97206.76;1821372;78;20078;-76
2021/07/07 12:36:34;;;;;;;;;;;;;;;31.71;36.90;97204.58;1827036;77;20456;-75
2021/07/07 12:39:04;;;;;;;;;;;;;;;31.72;37.15;97201.33;1821695;78;20412;-83
2021/07/07 12:41:36;;;;;;;;;;;;;;;31.73;36.34;97205.70;1817059;78;20123;-75
2021/07/07 12:44:11;;;;;;;;;;;;;;;31.81;36.98;97205.23;1821337;78;20148;-85
2021/07/07 12:46:56;;;;;;;;;;;;;;;31.86;37.14;97211.27;1820231;78;20104;-72
2021/07/07 12:49:44;;;;;;;;;;;;;;;31.86;37.04;97203.09;1841248;76;20168;-84
2021/07/07 12:52:19;;;;;;;;;;;;;;;31.84;36.44;97201.16;1833738;78;20124;-84